createdAt,value
2022-11-03T00:49:08.038Z,99.90
2022-11-03T00:52:09.725Z,99.90
2022-11-03T00:55:11.390Z,99.90
2022-11-03T00:58:13.037Z,99.90
2022-11-03T01:01:17.351Z,99.90
2022-11-03T01:04:37.626Z,99.90
2022-11-03T01:07:39.825Z,99.90
2022-11-03T01:11:01.456Z,99.90
2022-11-03T01:14:03.503Z,99.90
2022-11-03T01:17:07.027Z,99.90
2022-11-03T01:20:09.106Z,99.90
2022-11-03T01:23:10.759Z,99.90
2022-11-03T01:26:13.471Z,99.90
2022-11-03T01:29:15.323Z,99.90
2022-11-03T01:32:17.039Z,99.90
2022-11-03T01:35:18.726Z,99.90
2022-11-03T01:38:20.427Z,99.90
2022-11-03T01:41:25.152Z,99.90
2022-11-03T01:44:36.949Z,99.90
2022-11-03T01:47:40.490Z,99.90
2022-11-03T01:50:45.144Z,99.90
2022-11-03T01:53:49.809Z,99.90
2022-11-03T01:56:52.183Z,99.90
2022-11-03T01:59:55.235Z,99.90
2022-11-03T02:03:01.251Z,99.90
2022-11-03T02:06:04.384Z,99.90
2022-11-03T02:09:08.018Z,99.90
2022-11-03T02:12:10.835Z,99.90
2022-11-03T02:15:16.039Z,99.90
2022-11-03T02:18:19.722Z,99.90
2022-11-03T02:21:31.828Z,99.90
2022-11-03T02:24:52.881Z,99.90
2022-11-03T02:27:56.151Z,99.90
2022-11-03T02:31:29.101Z,99.90
2022-11-03T02:34:48.110Z,99.90
2022-11-03T02:37:55.089Z,99.90
2022-11-03T02:41:00.699Z,99.90
2022-11-03T02:44:04.424Z,99.90
2022-11-03T02:47:09.735Z,99.90
2022-11-03T02:50:11.482Z,99.90
2022-11-03T02:53:14.002Z,99.90
2022-11-03T02:56:20.888Z,99.90
2022-11-03T02:59:29.219Z,99.90
2022-11-03T03:02:42.046Z,99.90
2022-11-03T03:05:47.569Z,99.90
2022-11-03T03:08:56.198Z,99.90
2022-11-03T03:12:00.379Z,99.90
2022-11-03T03:15:03.972Z,99.90
2022-11-03T03:18:17.069Z,99.90
2022-11-03T03:21:25.870Z,99.90
2022-11-03T03:24:52.295Z,99.90
2022-11-03T03:28:01.767Z,99.90
2022-11-03T03:31:07.818Z,99.90
2022-11-03T03:34:31.383Z,99.90
2022-11-03T03:37:37.306Z,99.90
2022-11-03T03:40:44.061Z,99.90
2022-11-03T03:43:46.408Z,99.90
2022-11-03T03:46:53.055Z,99.90
2022-11-03T03:49:55.619Z,99.90
2022-11-03T03:53:02.271Z,99.90
2022-11-03T03:56:05.753Z,99.90
2022-11-03T03:59:08.411Z,99.90
2022-11-03T04:02:10.930Z,99.90
2022-11-03T04:05:12.804Z,99.90
2022-11-03T04:08:16.286Z,99.90
2022-11-03T04:11:36.601Z,99.90
2022-11-03T04:14:56.962Z,99.90
2022-11-03T04:18:17.495Z,99.90
2022-11-03T04:21:37.920Z,99.90
2022-11-03T04:24:39.688Z,99.90
2022-11-03T04:27:41.343Z,99.90
2022-11-03T04:30:43.009Z,99.90
2022-11-03T04:33:44.801Z,99.90
2022-11-03T04:36:46.424Z,99.90
2022-11-03T04:39:48.069Z,99.90
2022-11-03T04:42:49.869Z,99.90
2022-11-03T04:45:51.556Z,99.90
2022-11-03T04:48:54.611Z,99.90
2022-11-03T04:51:56.259Z,99.90
2022-11-03T04:54:57.946Z,99.90
2022-11-03T04:58:07.019Z,99.90
2022-11-03T05:01:17.273Z,99.90
2022-11-03T05:04:22.673Z,99.90
2022-11-03T05:07:28.774Z,99.90
2022-11-03T05:10:30.515Z,99.90
2022-11-03T05:13:32.227Z,99.90
2022-11-03T05:16:34.906Z,99.90
2022-11-03T05:19:39.894Z,99.90
2022-11-03T05:22:41.583Z,99.90
2022-11-03T05:25:47.054Z,99.90
2022-11-03T05:28:52.600Z,99.90
2022-11-03T05:31:56.106Z,99.90
2022-11-03T05:34:58.290Z,99.90
2022-11-03T05:38:00.000Z,99.90
2022-11-03T05:41:01.744Z,99.90
2022-11-03T05:44:21.755Z,99.90
2022-11-03T05:47:30.113Z,99.90
2022-11-03T05:50:34.905Z,99.90
2022-11-03T05:53:43.377Z,99.90
2022-11-03T05:56:45.102Z,99.90
2022-11-03T05:59:50.206Z,99.90
2022-11-03T06:02:51.969Z,99.90
2022-11-03T06:07:55.976Z,99.90
2022-11-03T06:10:59.728Z,99.90
2022-11-03T06:14:05.813Z,99.90
2022-11-03T06:17:13.224Z,99.90
2022-11-03T06:20:21.357Z,99.90
2022-11-03T06:23:23.625Z,99.90
2022-11-03T06:26:28.510Z,99.90
2022-11-03T06:29:32.823Z,99.90
2022-11-03T06:32:34.469Z,99.90
2022-11-03T06:35:36.339Z,99.90
2022-11-03T06:38:37.983Z,99.90
2022-11-03T06:41:40.055Z,99.90
2022-11-03T06:44:47.589Z,99.90
2022-11-03T06:47:49.949Z,99.90
2022-11-03T06:50:52.325Z,99.90
2022-11-03T06:53:57.611Z,99.90
2022-11-03T06:56:59.814Z,99.90
2022-11-03T07:00:20.579Z,99.90
2022-11-03T07:03:30.646Z,99.90
2022-11-03T07:06:36.155Z,99.90
2022-11-03T07:09:38.034Z,99.90
2022-11-03T07:12:41.406Z,99.90
2022-11-03T07:15:44.076Z,99.90
2022-11-03T07:18:47.632Z,99.90
2022-11-03T07:21:58.396Z,99.90
2022-11-03T07:25:03.453Z,99.90
2022-11-03T07:28:06.168Z,99.90
2022-11-03T07:31:23.499Z,99.90
2022-11-03T07:34:31.406Z,99.90
2022-11-03T07:37:34.514Z,99.90
2022-11-03T07:40:37.374Z,99.90
2022-11-03T07:43:39.238Z,99.90
2022-11-03T07:46:42.202Z,99.90
2022-11-03T07:49:44.986Z,99.90
2022-11-03T07:52:46.630Z,99.90
2022-11-03T07:55:49.029Z,99.90
2022-11-03T07:59:09.118Z,99.90
2022-11-03T08:02:29.209Z,99.90
2022-11-03T08:05:30.912Z,99.90
2022-11-03T08:08:32.559Z,99.90
2022-11-03T08:11:34.252Z,99.90
2022-11-03T08:14:37.636Z,99.90
2022-11-03T08:17:39.340Z,99.90
2022-11-03T08:20:41.091Z,99.90
2022-11-03T08:23:47.103Z,99.90
2022-11-03T08:26:50.254Z,99.90
2022-11-03T08:29:51.957Z,99.90
2022-11-03T08:32:53.587Z,99.90
2022-11-03T08:35:55.261Z,99.90
2022-11-03T08:38:56.930Z,99.90
2022-11-03T08:41:58.580Z,99.90
2022-11-03T08:45:00.247Z,99.90
2022-11-03T08:48:01.944Z,99.90
2022-11-03T08:51:03.763Z,99.90
2022-11-03T08:54:05.505Z,99.90
2022-11-03T08:57:07.164Z,99.90
2022-11-03T09:00:09.906Z,99.90
2022-11-03T09:03:11.597Z,99.90
2022-11-03T09:06:13.267Z,99.90
2022-11-03T09:12:38.144Z,99.90
2022-11-03T09:15:39.829Z,99.90
2022-11-03T09:18:41.474Z,99.90
2022-11-03T09:21:44.486Z,99.90
2022-11-03T09:24:46.135Z,99.90
2022-11-03T09:27:47.776Z,99.90
2022-11-03T09:30:49.417Z,99.90
2022-11-03T09:33:51.171Z,99.90
2022-11-03T09:36:53.401Z,99.90
2022-11-03T09:39:55.359Z,99.90
2022-11-03T09:42:57.434Z,99.90
2022-11-03T09:45:59.628Z,99.90
2022-11-03T09:49:02.469Z,99.90
2022-11-03T09:52:04.995Z,99.90
2022-11-03T09:55:17.636Z,99.90
2022-11-03T09:58:19.351Z,99.90
2022-11-03T10:01:21.421Z,99.90
2022-11-03T10:04:28.023Z,99.90
2022-11-03T10:07:31.213Z,99.90
2022-11-03T10:10:34.437Z,99.90
2022-11-03T10:13:48.860Z,99.90
2022-11-03T10:17:00.151Z,99.90
2022-11-03T10:20:02.455Z,99.90
2022-11-03T10:23:04.381Z,99.90
2022-11-03T10:26:12.000Z,99.90
2022-11-03T10:29:27.539Z,99.90
2022-11-03T10:32:30.643Z,99.90
2022-11-03T10:35:34.592Z,99.90
2022-11-03T10:38:36.520Z,99.90
2022-11-03T10:41:50.318Z,99.90
2022-11-03T10:44:54.198Z,99.90
2022-11-03T10:48:01.653Z,99.90
2022-11-03T10:51:03.290Z,99.90
2022-11-03T10:54:08.978Z,99.90
2022-11-03T10:57:10.987Z,99.90
2022-11-03T11:00:15.916Z,99.90
2022-11-03T11:03:20.651Z,99.90
2022-11-03T11:06:30.664Z,99.90
2022-11-03T11:09:33.673Z,99.90
2022-11-03T11:12:35.658Z,99.90
2022-11-03T11:15:59.410Z,99.90
2022-11-03T11:19:02.183Z,99.90
2022-11-03T11:22:13.756Z,99.90
2022-11-03T11:25:17.896Z,99.90
2022-11-03T11:28:19.527Z,99.90
2022-11-03T11:31:27.019Z,99.90
2022-11-03T11:34:34.647Z,99.90
2022-11-03T11:37:37.723Z,99.90
2022-11-03T11:40:51.878Z,99.90
2022-11-03T11:43:53.677Z,99.90
2022-11-03T11:46:56.467Z,99.90
2022-11-03T11:50:07.223Z,99.90
2022-11-03T11:53:14.008Z,99.90
2022-11-03T11:56:16.565Z,99.90
2022-11-03T11:59:26.162Z,99.90
2022-11-03T12:02:31.087Z,96.10
2022-11-03T12:05:35.563Z,95.60
2022-11-03T12:08:37.230Z,93.10
2022-11-03T12:12:04.887Z,93.90
2022-11-03T12:15:47.785Z,94.60
2022-11-03T12:18:50.668Z,91.60
2022-11-03T12:21:52.470Z,90.90
2022-11-03T12:24:55.863Z,91.60
2022-11-03T12:27:57.763Z,85.40
2022-11-03T12:34:06.425Z,85.60
2022-11-03T12:37:08.391Z,89.10
2022-11-03T12:40:12.875Z,90.60
2022-11-03T12:43:14.631Z,93.00
2022-11-03T12:46:22.270Z,91.20
2022-11-03T12:49:23.923Z,91.90
2022-11-03T12:52:25.647Z,91.10
2022-11-03T12:58:29.880Z,92.20
2022-11-03T13:01:33.124Z,92.60
2022-11-03T13:04:34.932Z,92.40
2022-11-03T13:07:36.686Z,92.80
2022-11-03T13:10:38.364Z,91.90
2022-11-03T13:13:40.020Z,91.20
2022-11-03T13:16:41.762Z,91.50
2022-11-03T13:19:43.471Z,90.60
2022-11-03T13:22:45.152Z,90.70
2022-11-03T13:25:46.958Z,91.10
2022-11-03T13:28:48.735Z,92.10
2022-11-03T13:31:50.643Z,92.60
2022-11-03T13:34:52.297Z,93.30
2022-11-03T13:37:53.962Z,95.00
2022-11-03T13:40:57.095Z,93.80
2022-11-03T13:44:00.252Z,94.10
2022-11-03T13:47:01.916Z,95.00
2022-11-03T13:50:19.773Z,95.90
2022-11-03T14:00:06.843Z,96.60
2022-11-03T14:06:35.808Z,96.20
2022-11-03T14:12:44.033Z,96.00
2022-11-03T14:15:45.678Z,96.50
2022-11-03T14:18:47.320Z,96.60
2022-11-03T14:21:49.061Z,96.70
2022-11-03T14:24:51.732Z,96.70
2022-11-03T14:27:53.489Z,97.20
2022-11-03T14:30:59.465Z,97.20
2022-11-03T14:34:01.400Z,98.20
2022-11-03T14:37:03.527Z,98.50
2022-11-03T14:40:06.611Z,98.80
2022-11-03T14:43:09.067Z,99.00
2022-11-03T14:46:11.368Z,98.10
2022-11-03T14:49:13.096Z,98.50
2022-11-03T14:52:16.031Z,98.50
2022-11-03T14:55:17.659Z,99.50
2022-11-03T14:58:19.354Z,99.60
2022-11-03T15:01:21.363Z,99.50
2022-11-03T15:04:23.580Z,99.20
2022-11-03T15:07:25.241Z,99.90
2022-11-03T15:10:26.878Z,99.90
2022-11-03T15:13:28.535Z,99.90
2022-11-03T15:16:30.172Z,99.90
2022-11-03T15:19:31.810Z,99.90
2022-11-03T15:25:56.069Z,99.90
2022-11-03T15:28:57.723Z,99.90
2022-11-03T15:31:59.367Z,99.90
2022-11-03T15:35:01.033Z,99.90
2022-11-03T15:38:02.705Z,99.90
2022-11-03T15:41:16.751Z,99.90
2022-11-03T15:44:18.395Z,99.90
2022-11-03T15:47:20.059Z,99.90
2022-11-03T15:50:21.831Z,99.90
2022-11-03T15:53:23.461Z,99.90
2022-11-03T15:56:28.466Z,99.90
2022-11-03T15:59:30.107Z,99.90
2022-11-03T16:02:47.683Z,99.90
2022-11-03T16:05:49.566Z,99.90
2022-11-03T16:08:51.225Z,99.90
2022-11-03T16:11:52.921Z,99.90
2022-11-03T16:14:54.618Z,99.90
2022-11-03T16:18:02.500Z,99.90
2022-11-03T16:21:04.571Z,99.90
2022-11-03T16:24:06.517Z,99.90
2022-11-03T16:27:09.530Z,99.90
2022-11-03T16:30:11.633Z,99.90
2022-11-03T16:33:13.269Z,99.90
2022-11-03T16:36:14.942Z,99.90
2022-11-03T16:39:16.654Z,99.90
2022-11-03T16:42:18.299Z,99.90
2022-11-03T16:45:23.317Z,99.90
2022-11-03T16:48:24.959Z,99.90
2022-11-03T16:51:26.846Z,99.90
2022-11-03T16:54:28.487Z,99.90
2022-11-03T16:57:30.133Z,99.90
2022-11-03T17:00:31.777Z,99.90
2022-11-03T17:03:33.554Z,99.90
2022-11-03T17:06:35.333Z,99.90
2022-11-03T17:09:37.046Z,99.90
2022-11-03T17:12:38.692Z,99.90
2022-11-03T17:15:40.326Z,99.90
2022-11-03T17:18:41.983Z,99.90
2022-11-03T17:21:43.712Z,99.90
2022-11-03T17:24:45.385Z,99.90
2022-11-03T17:27:56.710Z,99.90
2022-11-03T17:30:59.294Z,99.90
2022-11-03T17:34:01.382Z,99.90
2022-11-03T17:37:03.277Z,99.90
2022-11-03T17:40:11.278Z,99.90
2022-11-03T17:43:30.083Z,99.90
2022-11-03T17:46:31.719Z,99.90
2022-11-03T17:49:33.477Z,99.90
2022-11-03T17:52:36.256Z,99.90
2022-11-03T17:55:38.396Z,99.90
2022-11-03T17:58:45.835Z,99.90
2022-11-03T18:01:48.497Z,99.90
2022-11-03T18:04:51.296Z,99.90
2022-11-03T18:07:54.916Z,99.90
2022-11-03T18:10:57.042Z,99.90
2022-11-03T18:13:59.374Z,99.90
2022-11-03T18:17:01.653Z,99.90
2022-11-03T18:20:05.988Z,99.90
2022-11-03T18:23:20.088Z,99.90
2022-11-03T18:26:26.630Z,99.90
2022-11-03T18:29:28.293Z,99.90
2022-11-03T18:32:35.771Z,99.90
2022-11-03T18:35:37.787Z,99.90
2022-11-03T18:38:41.263Z,99.90
2022-11-03T18:41:43.925Z,99.90
2022-11-03T18:44:46.483Z,99.90
2022-11-03T18:47:48.210Z,99.90
2022-11-03T18:50:55.674Z,99.90
2022-11-03T18:53:57.379Z,99.90
2022-11-03T18:57:00.096Z,99.90
2022-11-03T19:00:02.389Z,99.90
2022-11-03T19:03:04.094Z,99.90
2022-11-03T19:06:05.905Z,99.90
2022-11-03T19:09:08.614Z,99.90
2022-11-03T19:12:14.086Z,99.90
2022-11-03T19:15:25.882Z,99.90
2022-11-03T19:18:29.428Z,99.90
2022-11-03T19:21:31.103Z,99.90
2022-11-03T19:24:32.792Z,99.90
2022-11-03T19:27:37.845Z,99.90
2022-11-03T19:30:40.014Z,99.90
2022-11-03T19:33:42.874Z,99.90
2022-11-03T19:36:45.125Z,99.90
2022-11-03T19:39:47.388Z,99.90
2022-11-03T19:42:49.061Z,99.90
2022-11-03T19:45:50.745Z,99.90
2022-11-03T19:48:52.493Z,99.90
2022-11-03T19:51:54.543Z,99.90
2022-11-03T19:54:57.786Z,99.90
2022-11-03T19:58:15.546Z,99.90
2022-11-03T20:01:17.345Z,99.90
2022-11-03T20:04:19.369Z,99.90
2022-11-03T20:07:21.170Z,99.90
2022-11-03T20:10:22.900Z,99.90
2022-11-03T20:13:28.638Z,99.90
2022-11-03T20:16:31.166Z,99.90
2022-11-03T20:19:32.911Z,99.90
2022-11-03T20:22:34.637Z,99.90
2022-11-03T20:25:37.853Z,99.90
2022-11-03T20:28:39.667Z,99.90
2022-11-03T20:31:43.269Z,99.90
2022-11-03T20:34:46.536Z,99.90
2022-11-03T20:37:50.395Z,99.90
2022-11-03T20:40:58.389Z,99.90
2022-11-03T20:44:00.399Z,99.90
2022-11-03T20:47:03.134Z,99.90
2022-11-03T20:50:05.095Z,99.90
2022-11-03T20:53:18.107Z,99.90
2022-11-03T20:56:22.608Z,99.90
2022-11-03T20:59:26.498Z,99.90
2022-11-03T21:02:28.341Z,99.90
2022-11-03T21:05:30.095Z,99.90
2022-11-03T21:08:31.808Z,99.90
2022-11-03T21:11:36.806Z,99.90
2022-11-03T21:14:39.904Z,99.90
2022-11-03T21:18:00.572Z,99.90
2022-11-03T21:21:02.279Z,99.90
2022-11-03T21:24:04.208Z,99.90
2022-11-03T21:27:05.963Z,99.90
2022-11-03T21:30:08.281Z,99.90
2022-11-03T21:33:10.422Z,99.90
2022-11-03T21:36:12.179Z,99.90
2022-11-03T21:39:13.894Z,99.90
2022-11-03T21:42:35.053Z,99.90
2022-11-03T21:45:36.838Z,99.90
2022-11-03T21:48:58.042Z,99.90
2022-11-03T21:51:59.710Z,99.90
2022-11-03T21:55:03.117Z,99.90
2022-11-03T21:58:05.090Z,99.90
2022-11-03T22:01:07.108Z,99.90
2022-11-03T22:04:08.906Z,99.90
2022-11-03T22:07:10.570Z,99.90
2022-11-03T22:10:12.465Z,99.90
2022-11-03T22:13:14.151Z,99.90
2022-11-03T22:16:34.435Z,99.90
2022-11-03T22:19:54.849Z,99.90
2022-11-03T22:23:19.389Z,99.90
2022-11-03T22:26:39.779Z,99.90
2022-11-03T22:30:00.326Z,99.90
2022-11-03T22:33:02.091Z,99.90
2022-11-03T22:36:23.064Z,99.90
2022-11-03T22:39:43.502Z,99.90
2022-11-03T22:43:03.750Z,99.90
2022-11-03T22:46:06.234Z,99.90
2022-11-03T22:49:08.022Z,99.90
2022-11-03T22:52:10.921Z,99.90
2022-11-03T22:55:12.575Z,99.90
2022-11-03T22:58:14.341Z,99.90
2022-11-03T23:01:18.806Z,99.90
2022-11-03T23:04:20.553Z,99.90
2022-11-03T23:07:25.721Z,99.90
2022-11-03T23:10:31.295Z,99.90
2022-11-03T23:13:33.049Z,99.90
2022-11-03T23:16:44.690Z,99.90
2022-11-03T23:20:05.115Z,99.90
2022-11-03T23:23:07.076Z,99.90
2022-11-03T23:26:09.460Z,99.90
2022-11-03T23:29:15.460Z,99.90
2022-11-03T23:32:17.207Z,99.90
2022-11-03T23:35:18.898Z,99.90
2022-11-03T23:38:20.571Z,99.90
2022-11-03T23:41:22.601Z,99.90
2022-11-03T23:44:24.245Z,99.90
2022-11-03T23:47:44.323Z,99.90
2022-11-03T23:50:46.215Z,99.90
2022-11-03T23:53:48.573Z,99.90
2022-11-03T23:57:09.386Z,99.90
